Skip to Main Content

Video Notice

If you see just a black screen when trying to view Live Traffic cameras, please click inside the window to get video to play. An update to certain browsers is not allowing the video to auto-play when the window opens. 

SEARCH:
Location Air RH Dwp Precip Type Wind Speed Wind Gust Direction Pavement Temperature Date/Time
Hatem Bridge US 40 E/B 72 97 72 None 6 mph 7 mph N 73 - 73 8/18/2018 3:59:00 AM
I-270 at I-370 71 96 71 None Calm Calm N 75 - 76 8/18/2018 3:55:00 AM
I-270 at MD-109 72 100 72 None Calm Calm N 74 - 75 8/18/2018 3:55:00 AM
I-495 at American Legion Bridge 70 99 70 None Calm Calm NW 74 - 74 8/18/2018 3:55:00 AM
I-68 at Savage Mt 67 100 67 None Calm 7 mph W 69 - 69 8/18/2018 3:55:00 AM
I-68 at Sideling Hill 70 100 70 None Calm 6 mph S 74 - 75 8/18/2018 3:55:00 AM
I-68 at US 219 66 100 66 None 12 mph 25 mph W 69 - 70 8/18/2018 3:55:00 AM
I-68 at WV Line 70 91 67 None 4 mph 9 mph W 71 - 72 8/18/2018 3:55:00 AM
I-695 at I-83 73 89 69 Rain Calm Calm NE 80 - 80 8/18/2018 3:55:00 AM
I-695 on FSK Bridge 74 88 71 None 7 mph 10 mph E 74 - 74 8/18/2018 3:59:00 AM
I-70 at Fred-Wash Co. 70 100 70 None Calm 4 mph W 72 - 72 8/18/2018 3:55:00 AM
I-70 at I-695 72 96 71 Rain Calm Calm N 77 - 78 8/18/2018 3:55:00 AM
I-70 at I-81 72 100 72 None Calm 5 mph S - 8/18/2018 3:55:00 AM
I-70 at MD-27 71 100 71 None Calm Calm W 74 - 75 8/18/2018 3:55:00 AM
I-70 at MD-32 71 96 70 None Calm Calm SW 76 - 78 8/18/2018 3:55:00 AM
I-83 at MD-137 72 100 72 Rain Calm Calm NW 75 - 75 8/18/2018 3:55:00 AM
I-95 at I-695 NE 75 83 69 Rain Calm 4 mph NW 78 - 79 8/18/2018 3:59:00 AM
I-95 at Patuxent River 72 97 71 None Calm Calm N 75 - 75 8/18/2018 3:55:00 AM
I-95 at Tydings Bridge 72 96 71 None Calm 9 mph NW 76 - 76 8/18/2018 3:55:00 AM
I-95/495 at I-295 80 71 70 None Calm Calm SE 81 - 82 8/18/2018 3:55:00 AM
I-97 at MD-100 72 95 70 None Calm 5 mph NW 77 - 77 8/18/2018 3:55:00 AM
I-97 at MD-32 72 95 70 None Calm 4 mph NW 77 - 78 8/18/2018 3:55:00 AM
IS 70 W of I-270 - - - No Data Available - - No Data Available 77 - 77 8/18/2018 3:55:00 AM
MD 136 @ MD 646 71 100 71 No Data Available Calm Calm SW 78 - 78 8/18/2018 3:55:00 AM
MD 20 at MD 21 74 92 72 None Calm 6 mph NW 84 - 84 8/18/2018 3:55:00 AM
MD 23 at Meadowtree Road 71 100 71 No Data Available Calm Calm S 76 - 76 8/18/2018 3:55:00 AM
MD 231 at Patuxent River 77 89 74 None Calm 5 mph NE 81 - 84 8/18/2018 3:55:00 AM
MD 24 at Jarrettsville Road 72 94 71 No Data Available Calm Calm W 79 - 79 8/18/2018 3:55:00 AM
MD 260 at Cox Rd 76 92 73 None Calm Calm SW 85 - 85 8/18/2018 3:55:00 AM
MD-135 at Salt Dome 66 100 66 None Calm 7 mph SW 71 - 71 8/18/2018 3:55:00 AM
MD-140 at MD-97 70 100 70 Rain Calm Calm S 73 - 75 8/18/2018 3:55:00 AM
MD-200 EB at Bonifant Rd - - - No Data Available - - No Data Available -
MD-200 WB at Muncaster Mill Rd 68 98 68 None Calm Calm N 74 - 75 8/18/2018 3:59:00 AM
MD-213 at Sassafras River 76 96 74 None Calm Calm S 82 - 82 8/18/2018 3:55:00 AM
MD-24 at Rock St Park 73 100 73 None Calm Calm N 74 - 74 8/18/2018 3:55:00 AM
MD-30 at PA Line 71 100 71 None Calm 7 mph S 75 - 75 8/18/2018 3:55:00 AM
MD-33 at Knapps Narrows Drawbridge 79 87 75 None Calm 11 mph NW 87 - 87 8/18/2018 3:55:00 AM
MD-344 at MD-224 74 96 73 None Calm Calm N 83 - 83 8/18/2018 3:55:00 AM
MD-4 at Patuxent River 80 84 75 None 15 mph 16 mph SW 82 - 85 8/18/2018 3:59:00 AM
MD-404 at Choptank River 78 87 74 None Calm Calm S 84 - 84 8/18/2018 3:55:00 AM
MD-43 at MD-150 76 90 72 Rain 5 mph 9 mph W 80 - 81 8/18/2018 3:55:00 AM
MD-51 at Oldtown Salt Dome 70 100 70 None Calm 6 mph NW 76 - 76 8/18/2018 3:55:00 AM
MD-64 at MD-418 71 100 71 None Calm Calm N 77 - 78 8/18/2018 3:55:00 AM
US 301 at MD 305 75 93 73 None Calm Calm S 83 - 86 8/18/2018 3:55:00 AM
US-1 at Baltimore / Harford Co. Line 72 96 71 None Calm Calm W 79 - 79 8/18/2018 3:55:00 AM
US-1 at Conowingo Dam 73 100 73 None Calm Calm NE 77 - 77 8/18/2018 3:55:00 AM
US-13 at US-113 82 80 75 None 7 mph 13 mph SW 86 - 87 8/18/2018 3:55:00 AM
US-13 at US-50 79 84 74 None 4 mph 8 mph SW 83 - 83 8/18/2018 3:55:00 AM
US-15 at MD-140 71 99 71 None Calm Calm W 74 - 75 8/18/2018 3:55:00 AM
US-301 at MD-5 74 96 73 None Calm Calm N 82 - 83 8/18/2018 3:55:00 AM
US-301 at Potomac 82 83 77 None 5 mph 9 mph NW 78 - 79 8/18/2018 3:59:00 AM
US-340 at MD-180 70 100 70 None 5 mph 12 mph W 74 - 75 8/18/2018 3:55:00 AM
US-50 at Choptank 82 87 78 None 5 mph 12 mph SW 83 - 84 8/18/2018 3:55:00 AM
US-50 at I-95 74 89 71 None Calm Calm SW 78 - 81 8/18/2018 3:55:00 AM
US-50 at MD-2 76 90 73 None Calm Calm W 80 - 82 8/18/2018 3:55:00 AM
US-50 at MD-331 81 83 75 None 6 mph 10 mph SW 84 - 84 8/18/2018 3:55:00 AM
US-50 at OC Drawbridge 80 94 78 None Calm 10 mph SW 84 - 84 8/18/2018 3:55:00 AM
US-50 at Table Rock Rd 66 100 66 None 4 mph 14 mph NW 71 - 71 8/18/2018 3:55:00 AM
US-50 Kent Narrow Bridge 77 94 75 None Calm Calm SW 82 - 83 8/18/2018 3:55:00 AM
WPL Pier 31 77 80 70 None 7 mph 9 mph SW 80 - 80 8/18/2018 3:59:00 AM
Location Air RH Dwp Precip Type Wind Speed Wind Gust Direction Pavement Temperature Date/Time